createdAt,value
2019-04-11T00:02:16.430Z,102764.82
2019-04-11T00:04:46.323Z,102767.88
2019-04-11T00:07:18.212Z,102766.20
2019-04-11T00:09:47.944Z,102769.91
2019-04-11T00:12:18.980Z,102770.27
2019-04-11T00:14:48.458Z,102770.79
2019-04-11T00:17:17.804Z,102773.50
2019-04-11T00:19:48.767Z,102772.61
2019-04-11T00:22:23.558Z,102778.20
2019-04-11T00:24:53.387Z,102778.04
2019-04-11T00:27:24.883Z,102785.70
2019-04-11T00:29:55.514Z,102787.06
2019-04-11T00:32:29.572Z,102783.47
2019-04-11T00:34:59.444Z,102787.39
2019-04-11T00:37:37.006Z,102789.59
2019-04-11T00:40:07.328Z,102788.75
2019-04-11T00:42:36.818Z,102788.05
2019-04-11T00:45:07.453Z,102792.12
2019-04-11T00:47:38.162Z,102798.25
2019-04-11T00:50:10.613Z,102800.13
2019-04-11T00:52:42.429Z,102797.23
2019-04-11T00:55:15.700Z,102804.38
2019-04-11T00:57:45.370Z,102805.92
2019-04-11T01:00:16.517Z,102805.41
2019-04-11T01:02:46.073Z,102804.22
2019-04-11T01:05:17.176Z,102803.00
2019-04-11T01:07:47.258Z,102801.98
2019-04-11T01:10:20.259Z,102799.75
2019-04-11T01:12:51.199Z,102806.67
2019-04-11T01:15:23.902Z,102807.69
2019-04-11T01:17:54.563Z,102801.08
2019-04-11T01:20:23.941Z,102802.58
2019-04-11T01:22:54.248Z,102806.49
2019-04-11T01:25:26.366Z,102801.55
2019-04-11T01:27:56.442Z,102803.61
2019-04-11T01:30:36.682Z,102800.22
2019-04-11T01:33:07.968Z,102795.69
2019-04-11T01:35:37.480Z,102804.84
2019-04-11T01:38:06.944Z,102799.41
2019-04-11T01:40:36.297Z,102810.28
2019-04-11T01:43:08.410Z,102801.62
2019-04-11T01:45:37.903Z,102800.97
2019-04-11T01:48:33.350Z,102804.01
2019-04-11T01:51:03.462Z,102804.01
2019-04-11T01:53:35.290Z,102807.91
2019-04-11T01:56:05.352Z,102807.26
2019-04-11T01:58:35.101Z,102801.84
2019-04-11T02:01:16.866Z,102802.03
2019-04-11T02:03:59.390Z,102805.42
2019-04-11T02:06:31.932Z,102807.30
2019-04-11T02:09:06.037Z,102802.38
2019-04-11T02:11:37.360Z,102804.25
2019-04-11T02:14:15.610Z,102808.13
2019-04-11T02:16:39.473Z,102804.39
2019-04-11T02:19:10.364Z,102811.35
2019-04-11T02:21:40.064Z,102813.73
2019-04-11T02:24:23.649Z,102809.80
2019-04-11T02:27:24.803Z,102812.70
2019-04-11T02:29:58.577Z,102819.33
2019-04-11T02:32:29.393Z,102816.45
2019-04-11T02:35:02.474Z,102814.23
2019-04-11T02:37:32.075Z,102814.23
2019-04-11T02:40:03.217Z,102816.44
2019-04-11T02:42:35.077Z,102818.33
2019-04-11T02:45:23.114Z,102816.47
2019-04-11T02:47:44.583Z,102819.02
2019-04-11T02:50:19.175Z,102821.91
2019-04-11T02:52:49.587Z,102822.91
2019-04-11T02:55:23.364Z,102819.02
2019-04-11T02:57:54.323Z,102822.91
2019-04-11T03:00:26.759Z,102826.84
2019-04-11T03:03:01.560Z,102826.84
2019-04-11T03:05:34.496Z,102829.04
2019-04-11T03:08:07.956Z,102827.36
2019-04-11T03:10:36.079Z,102822.58
2019-04-11T03:13:05.664Z,102828.02
2019-04-11T03:15:48.917Z,102824.13
2019-04-11T03:18:14.196Z,102832.78
2019-04-11T03:20:48.432Z,102826.33
2019-04-11T03:23:16.495Z,102828.86
2019-04-11T03:25:48.927Z,102831.23
2019-04-11T03:28:23.795Z,102828.70
2019-04-11T03:31:30.371Z,102833.61
2019-04-11T03:39:01.789Z,102833.97
2019-04-11T03:41:27.022Z,102831.94
2019-04-11T03:43:58.113Z,102835.83
2019-04-11T03:46:34.028Z,102833.78
2019-04-11T03:49:00.187Z,102833.13
2019-04-11T03:51:27.638Z,102833.45
2019-04-11T03:53:58.890Z,102831.59
2019-04-11T03:56:29.747Z,102834.16
2019-04-11T03:59:01.399Z,102837.36
2019-04-11T04:01:34.076Z,102838.23
2019-04-11T04:04:06.719Z,102849.23
2019-04-11T04:06:37.401Z,102845.02
2019-04-11T04:09:10.815Z,102836.70
2019-04-11T04:11:45.048Z,102842.80
2019-04-11T04:14:34.346Z,102845.38
2019-04-11T04:17:30.661Z,102846.40
2019-04-11T04:20:22.548Z,102843.50
2019-04-11T04:23:05.255Z,102853.33
2019-04-11T04:25:42.719Z,102848.08
2019-04-11T04:28:13.648Z,102855.19
2019-04-11T04:30:44.670Z,102852.66
2019-04-11T04:33:17.075Z,102856.03
2019-04-11T04:35:47.648Z,102854.16
2019-04-11T04:38:18.904Z,102856.87
2019-04-11T04:41:05.976Z,102859.76
2019-04-11T04:43:22.612Z,102863.32
2019-04-11T04:46:08.509Z,102863.64
2019-04-11T04:48:26.753Z,102865.00
2019-04-11T04:50:56.985Z,102862.47
2019-04-11T04:53:28.122Z,102860.44
2019-04-11T04:56:03.203Z,102867.55
2019-04-11T04:58:33.912Z,102867.55
2019-04-11T05:01:06.203Z,102876.34
2019-04-11T05:03:34.817Z,102872.27
2019-04-11T05:06:04.357Z,102872.61
2019-04-11T05:08:35.299Z,102875.47
2019-04-11T05:11:05.131Z,102881.41
2019-04-11T05:13:34.753Z,102883.97
2019-04-11T05:16:17.126Z,102883.25
2019-04-11T05:18:45.017Z,102882.23
2019-04-11T05:21:14.640Z,102882.22
2019-04-11T05:23:46.682Z,102895.27
2019-04-11T05:26:17.306Z,102888.66
2019-04-11T05:28:49.421Z,102887.81
2019-04-11T05:31:19.129Z,102894.77
2019-04-11T05:33:49.492Z,102893.74
2019-04-11T05:36:24.778Z,102897.80
2019-04-11T05:38:58.340Z,102897.92
2019-04-11T05:41:27.782Z,102902.17
2019-04-11T05:44:00.787Z,102904.73
2019-04-11T05:46:35.279Z,102895.67
2019-04-11T05:49:17.020Z,102901.60
2019-04-11T05:52:00.412Z,102904.16
2019-04-11T05:54:36.460Z,102905.00
2019-04-11T05:57:05.537Z,102902.78
2019-04-11T05:59:34.902Z,102903.09
2019-04-11T06:02:15.040Z,102903.89
2019-04-11T06:05:02.735Z,102904.69
2019-04-11T06:07:48.557Z,102896.69
2019-04-11T06:10:26.372Z,102900.61
2019-04-11T06:13:16.567Z,102900.03
2019-04-11T06:15:49.178Z,102906.27
2019-04-11T06:18:41.846Z,102903.63
2019-04-11T06:21:14.158Z,102910.80
2019-04-11T06:24:08.271Z,102908.65
2019-04-11T06:26:56.678Z,102911.59
2019-04-11T06:29:57.785Z,102913.07
2019-04-11T06:32:49.650Z,102918.00
2019-04-11T06:35:40.925Z,102912.80
2019-04-11T06:38:47.208Z,102911.99
2019-04-11T06:41:28.615Z,102915.15
2019-04-11T06:44:16.376Z,102919.72
2019-04-11T06:47:14.108Z,102919.84
2019-04-11T06:50:10.980Z,102920.92
2019-04-11T06:52:41.282Z,102926.11
2019-04-11T06:55:18.600Z,102929.16
2019-04-11T06:57:48.477Z,102926.86
2019-04-11T07:00:18.925Z,102929.42
2019-04-11T07:02:55.074Z,102932.34
2019-04-11T07:05:26.759Z,102939.24
2019-04-11T07:07:59.924Z,102932.76
2019-04-11T07:10:36.244Z,102933.37
2019-04-11T07:13:28.311Z,102938.30
2019-04-11T07:15:58.551Z,102941.30
2019-04-11T07:18:56.949Z,102940.11
2019-04-11T07:21:33.274Z,102941.19
2019-04-11T07:24:22.382Z,102945.88
2019-04-11T07:26:58.830Z,102945.20
2019-04-11T07:29:48.481Z,102946.52
2019-04-11T07:32:20.188Z,102957.41
2019-04-11T07:35:33.600Z,102956.26
2019-04-11T07:38:03.331Z,102956.73
2019-04-11T07:40:51.962Z,102959.86
2019-04-11T07:43:36.916Z,102950.69
2019-04-11T07:46:26.875Z,102954.17
2019-04-11T07:49:08.396Z,102946.94
2019-04-11T07:52:00.346Z,102947.31
2019-04-11T07:54:30.340Z,102950.78
2019-04-11T07:57:11.435Z,102956.88
2019-04-11T08:00:09.474Z,102957.39
2019-04-11T08:02:57.422Z,102962.72
2019-04-11T08:05:58.756Z,102957.48
2019-04-11T08:08:45.164Z,102960.07
2019-04-11T08:11:38.002Z,102956.52
2019-04-11T08:14:44.324Z,102949.23
2019-04-11T08:17:28.180Z,102958.80
2019-04-11T08:20:08.100Z,102953.41
2019-04-11T08:22:47.507Z,102961.02
2019-04-11T08:25:35.519Z,102965.56
2019-04-11T08:28:12.404Z,102962.23
2019-04-11T08:31:08.756Z,102971.41
2019-04-11T08:33:40.663Z,102978.55
2019-04-11T08:36:30.051Z,102977.03
2019-04-11T08:39:01.796Z,102975.77
2019-04-11T08:41:49.669Z,102972.61
2019-04-11T08:44:23.790Z,102974.90
2019-04-11T08:47:02.542Z,102982.86
2019-04-11T08:49:42.781Z,102981.47
2019-04-11T08:52:33.319Z,102983.67
2019-04-11T08:55:19.027Z,102977.92
2019-04-11T08:57:51.980Z,102981.12
2019-04-11T09:00:40.179Z,102988.16
2019-04-11T09:03:17.677Z,102982.82
2019-04-11T09:06:04.306Z,102981.59
2019-04-11T09:08:59.019Z,102987.39
2019-04-11T09:11:44.896Z,102989.88
2019-04-11T09:14:32.486Z,102974.61
2019-04-11T09:17:30.404Z,102986.34
2019-04-11T09:20:23.382Z,102981.28
2019-04-11T09:22:59.518Z,102974.93
2019-04-11T09:25:55.344Z,102984.20
2019-04-11T09:28:50.043Z,102981.94
2019-04-11T09:31:41.910Z,102982.80
2019-04-11T09:34:50.165Z,102988.87
2019-04-11T09:37:37.809Z,102985.66
2019-04-11T09:40:28.041Z,102985.15
2019-04-11T09:43:15.798Z,102987.36
2019-04-11T09:46:16.508Z,102988.94
2019-04-11T09:49:06.682Z,102998.12
2019-04-11T09:51:42.729Z,102989.98
2019-04-11T09:54:45.620Z,102991.45
2019-04-11T09:57:44.217Z,102997.91
2019-04-11T10:00:47.606Z,102997.52
2019-04-11T10:03:25.858Z,102988.22
2019-04-11T10:06:19.445Z,103002.67
2019-04-11T10:09:06.450Z,103001.03
2019-04-11T10:11:55.068Z,102997.09
2019-04-11T10:14:27.055Z,102999.06
2019-04-11T10:17:14.847Z,102996.07
2019-04-11T10:19:49.438Z,102992.45
2019-04-11T10:22:44.202Z,102991.67
2019-04-11T10:25:28.267Z,102994.50
2019-04-11T10:28:33.447Z,102996.59
2019-04-11T10:31:20.528Z,102998.25
2019-04-11T10:34:11.251Z,102999.58
2019-04-11T10:36:55.748Z,103013.87
2019-04-11T10:39:47.474Z,103016.03
2019-04-11T10:42:18.055Z,103015.81
2019-04-11T10:45:12.607Z,103014.39
2019-04-11T10:47:42.064Z,103014.64
2019-04-11T10:50:36.763Z,103027.47
2019-04-11T10:53:08.863Z,103023.42
2019-04-11T10:58:37.167Z,103027.04
2019-04-11T11:01:25.563Z,103031.82
2019-04-11T11:04:14.386Z,103029.02
2019-04-11T11:06:45.108Z,103029.59
2019-04-11T11:09:26.272Z,103025.98
2019-04-11T11:12:17.478Z,103023.64
2019-04-11T11:15:18.086Z,103022.96
2019-04-11T11:18:43.937Z,103021.01
2019-04-11T11:20:55.018Z,103012.77
2019-04-11T11:23:40.847Z,103017.63
2019-04-11T11:26:33.750Z,103020.30
2019-04-11T11:29:20.987Z,103011.30
2019-04-11T11:32:00.720Z,103024.95
2019-04-11T11:34:36.772Z,103032.69
2019-04-11T11:37:37.557Z,103031.38
2019-04-11T11:40:25.896Z,103027.97
2019-04-11T11:43:30.789Z,103037.60
2019-04-11T11:46:26.764Z,103032.88
2019-04-11T11:49:02.725Z,103031.75
2019-04-11T11:51:37.473Z,103041.57
2019-04-11T11:54:19.691Z,103046.30
2019-04-11T11:56:49.175Z,103051.44
2019-04-11T11:59:36.458Z,103046.95
2019-04-11T12:02:15.639Z,103036.41
2019-04-11T12:05:18.529Z,103047.69
2019-04-11T12:07:56.540Z,103056.73
2019-04-11T12:10:35.515Z,103055.63
2019-04-11T12:13:24.096Z,103058.20
2019-04-11T12:16:16.011Z,103054.86
2019-04-11T12:18:58.465Z,103050.81
2019-04-11T12:21:31.453Z,103057.66
2019-04-11T12:24:19.937Z,103055.77
2019-04-11T12:26:57.335Z,103053.03
2019-04-11T12:29:48.855Z,103056.92
2019-04-11T12:32:20.257Z,103053.41
2019-04-11T12:35:17.855Z,103051.46
2019-04-11T12:37:53.324Z,103043.59
2019-04-11T12:40:56.772Z,103045.30
2019-04-11T12:43:34.133Z,103041.38
2019-04-11T12:46:29.563Z,103044.56
2019-04-11T12:48:52.172Z,103053.14
2019-04-11T12:51:46.423Z,103039.93
2019-04-11T12:54:22.755Z,103044.17
2019-04-11T12:57:19.833Z,103040.00
2019-04-11T12:59:50.817Z,103043.12
2019-04-11T13:02:54.005Z,103046.49
2019-04-11T13:05:23.667Z,103046.08
2019-04-11T13:08:23.897Z,103037.80
2019-04-11T13:10:53.332Z,103034.60
2019-04-11T13:13:28.669Z,103043.06
2019-04-11T13:16:11.831Z,103041.31
2019-04-11T13:19:02.760Z,103041.58
2019-04-11T13:21:40.009Z,103040.42
2019-04-11T13:24:28.208Z,103045.80
2019-04-11T13:27:14.676Z,103043.20
2019-04-11T13:30:02.967Z,103048.58
2019-04-11T13:32:54.588Z,103054.39
2019-04-11T13:35:40.225Z,103046.92
2019-04-11T13:38:34.603Z,103043.00
2019-04-11T13:41:22.829Z,103052.44
2019-04-11T13:44:11.241Z,103040.33
2019-04-11T13:46:59.466Z,103041.29
2019-04-11T13:49:46.417Z,103042.22
2019-04-11T13:52:34.658Z,103040.65
2019-04-11T13:55:10.526Z,103032.00
2019-04-11T13:58:00.098Z,103037.89
2019-04-11T14:00:50.046Z,103031.23
2019-04-11T14:03:45.348Z,103041.92
2019-04-11T14:06:24.857Z,103039.42
2019-04-11T14:09:23.026Z,103031.09
2019-04-11T14:12:04.735Z,103037.72
2019-04-11T14:14:59.672Z,103032.72
2019-04-11T14:17:51.071Z,103033.91
2019-04-11T14:20:29.737Z,103030.67
2019-04-11T14:23:16.273Z,103030.67
2019-04-11T14:26:14.150Z,103022.16
2019-04-11T14:28:53.275Z,103020.84
2019-04-11T14:31:40.802Z,103014.42
2019-04-11T14:34:32.357Z,103016.57
2019-04-11T14:37:09.007Z,103017.80
2019-04-11T14:39:40.654Z,103013.98
2019-04-11T14:42:22.396Z,103015.50
2019-04-11T14:44:52.638Z,103014.22
2019-04-11T14:47:47.084Z,103017.18
2019-04-11T14:50:17.469Z,103016.34
2019-04-11T14:52:54.802Z,103009.61
2019-04-11T14:55:25.754Z,103008.03
2019-04-11T14:58:23.582Z,103008.77
2019-04-11T15:00:53.715Z,103005.71
2019-04-11T15:03:47.559Z,103012.85
2019-04-11T15:06:38.900Z,103011.26
2019-04-11T15:09:25.379Z,103013.52
2019-04-11T15:11:57.929Z,103004.78
2019-04-11T15:14:52.091Z,103006.55
2019-04-11T15:17:32.751Z,103004.41
2019-04-11T15:20:19.433Z,103011.14
2019-04-11T15:22:55.691Z,103009.19
2019-04-11T15:25:43.891Z,103007.68
2019-04-11T15:28:29.440Z,103004.69
2019-04-11T15:31:02.581Z,103009.98
2019-04-11T15:34:03.343Z,103005.48
2019-04-11T15:36:32.638Z,103011.77
2019-04-11T15:39:44.394Z,103009.41
2019-04-11T15:42:10.004Z,103005.23
2019-04-11T15:45:05.113Z,103005.63
2019-04-11T15:47:34.355Z,103000.44
2019-04-11T15:50:21.404Z,103006.53
2019-04-11T15:52:54.525Z,103003.17
2019-04-11T15:55:58.074Z,103010.56
2019-04-11T15:58:32.393Z,103004.48
2019-04-11T16:01:23.674Z,103008.52
2019-04-11T16:03:56.649Z,103009.82
2019-04-11T16:06:47.909Z,103007.47
2019-04-11T16:09:19.514Z,103004.53
2019-04-11T16:12:07.936Z,103016.27
2019-04-11T16:14:38.926Z,103011.97
2019-04-11T16:17:36.140Z,103018.79
2019-04-11T16:20:18.263Z,103018.47
2019-04-11T16:23:09.218Z,103020.28
2019-04-11T16:25:38.886Z,103025.05
2019-04-11T16:28:27.416Z,103026.78
2019-04-11T16:30:58.565Z,103020.89
2019-04-11T16:33:46.160Z,103022.25
2019-04-11T16:36:40.937Z,103025.70
2019-04-11T16:39:44.795Z,103025.17
2019-04-11T16:42:15.480Z,103027.95
2019-04-11T16:44:59.725Z,103021.89
2019-04-11T16:47:48.966Z,103029.19
2019-04-11T16:50:18.290Z,103025.94
2019-04-11T16:52:47.587Z,103023.78
2019-04-11T16:55:16.920Z,103027.46
2019-04-11T16:57:46.242Z,103022.69
2019-04-11T17:00:20.256Z,103027.69
2019-04-11T17:02:47.310Z,103027.50
2019-04-11T17:05:17.029Z,103035.45
2019-04-11T17:08:11.485Z,103028.70
2019-04-11T17:10:58.629Z,103032.98
2019-04-11T17:13:28.484Z,103035.97
2019-04-11T17:16:00.104Z,103032.43
2019-04-11T17:18:29.278Z,103040.59
2019-04-11T17:20:58.589Z,103044.55
2019-04-11T17:23:27.871Z,103049.01
2019-04-11T17:25:57.226Z,103045.66
2019-04-11T17:28:26.747Z,103039.55
2019-04-11T17:30:56.108Z,103043.55
2019-04-11T17:33:28.645Z,103044.11
2019-04-11T17:35:56.688Z,103049.95
2019-04-11T17:38:26.132Z,103047.11
2019-04-11T17:40:55.408Z,103049.55
2019-04-11T17:43:24.716Z,103051.61
2019-04-11T17:45:56.972Z,103050.28
2019-04-11T17:48:25.221Z,103058.62
2019-04-11T17:50:54.456Z,103051.84
2019-04-11T17:53:24.898Z,103058.14
2019-04-11T17:55:55.024Z,103061.38
2019-04-11T17:58:26.966Z,103066.95
2019-04-11T18:01:00.275Z,103077.48
2019-04-11T18:03:29.095Z,103073.73
2019-04-11T18:05:58.523Z,103077.61
2019-04-11T18:08:27.835Z,103076.09
2019-04-11T18:10:57.153Z,103081.50
2019-04-11T18:13:30.581Z,103091.31
2019-04-11T18:16:00.935Z,103090.59
2019-04-11T18:18:28.548Z,103082.59
2019-04-11T18:20:58.061Z,103094.59
2019-04-11T18:23:27.403Z,103098.47
2019-04-11T18:25:56.840Z,103100.13
2019-04-11T18:28:26.197Z,103102.60
2019-04-11T18:30:55.468Z,103103.06
2019-04-11T18:33:24.814Z,103113.52
2019-04-11T18:35:54.080Z,103112.97
2019-04-11T18:38:23.418Z,103118.02
2019-04-11T18:40:52.789Z,103119.83
2019-04-11T18:43:22.202Z,103120.95
2019-04-11T18:45:51.487Z,103123.60
2019-04-11T18:48:20.781Z,103123.03
2019-04-11T18:50:50.837Z,103126.89
2019-04-11T18:53:21.252Z,103123.00
2019-04-11T18:55:50.569Z,103125.88
2019-04-11T18:58:20.039Z,103131.09
2019-04-11T19:00:49.493Z,103129.36
2019-04-11T19:03:19.001Z,103129.48
2019-04-11T19:05:48.463Z,103127.44
2019-04-11T19:08:17.833Z,103130.50
2019-04-11T19:10:47.228Z,103120.78
2019-04-11T19:13:17.536Z,103119.73
2019-04-11T19:15:46.908Z,103117.19
2019-04-11T19:18:17.078Z,103113.97
2019-04-11T19:20:49.963Z,103121.64
2019-04-11T19:23:17.631Z,103116.69
2019-04-11T19:25:46.997Z,103119.58
2019-04-11T19:28:16.301Z,103120.42
2019-04-11T19:30:45.910Z,103123.66
2019-04-11T19:33:15.477Z,103124.51
2019-04-11T19:35:44.779Z,103125.55
2019-04-11T19:38:28.410Z,103123.51
2019-04-11T19:40:57.666Z,103125.52
2019-04-11T19:43:27.134Z,103127.22
2019-04-11T19:45:58.691Z,103130.95
2019-04-11T19:48:27.780Z,103122.98
2019-04-11T19:50:58.870Z,103126.88
2019-04-11T19:53:28.346Z,103125.34
2019-04-11T19:56:17.625Z,103127.73
2019-04-11T19:58:46.913Z,103128.06
2019-04-11T20:01:16.149Z,103128.76
2019-04-11T20:03:45.568Z,103140.98
2019-04-11T20:06:14.897Z,103134.01
2019-04-11T20:08:44.194Z,103140.30
2019-04-11T20:11:13.721Z,103134.86
2019-04-11T20:13:43.127Z,103129.95
2019-04-11T20:16:13.228Z,103135.89
2019-04-11T20:18:51.029Z,103133.36
2019-04-11T20:21:13.732Z,103142.87
2019-04-11T20:23:43.165Z,103138.94
2019-04-11T20:26:12.422Z,103150.17
2019-04-11T20:28:41.702Z,103145.06
2019-04-11T20:31:11.080Z,103148.95
2019-04-11T20:33:40.334Z,103151.31
2019-04-11T20:36:11.151Z,103146.67
2019-04-11T20:38:41.033Z,103151.73
2019-04-11T20:41:10.380Z,103155.15
2019-04-11T20:43:39.710Z,103150.17
2019-04-11T20:46:09.269Z,103149.98
2019-04-11T20:48:38.551Z,103147.73
2019-04-11T20:51:07.820Z,103149.78
2019-04-11T20:53:37.680Z,103154.23
2019-04-11T20:56:09.703Z,103153.20
2019-04-11T20:58:39.693Z,103153.84
2019-04-11T21:01:09.442Z,103153.18
2019-04-11T21:03:38.784Z,103160.52
2019-04-11T21:06:08.286Z,103149.27
2019-04-11T21:08:37.559Z,103155.20
2019-04-11T21:11:06.801Z,103154.21
2019-04-11T21:13:38.481Z,103162.53
2019-04-11T21:16:07.269Z,103156.90
2019-04-11T21:18:36.621Z,103165.37
2019-04-11T21:21:06.200Z,103166.41
2019-04-11T21:23:35.495Z,103168.42
2019-04-11T21:26:04.834Z,103170.84
2019-04-11T21:28:34.336Z,103170.84
2019-04-11T21:31:03.583Z,103171.66
2019-04-11T21:33:34.921Z,103178.80
2019-04-11T21:36:04.086Z,103175.41
2019-04-11T21:38:33.417Z,103184.45
2019-04-11T21:41:05.882Z,103178.80
2019-04-11T21:43:35.884Z,103180.86
2019-04-11T21:46:07.026Z,103177.64
2019-04-11T21:48:36.610Z,103184.47
2019-04-11T21:51:05.998Z,103185.83
2019-04-11T21:53:36.709Z,103183.75
2019-04-11T21:56:06.806Z,103187.81
2019-04-11T21:58:36.105Z,103186.67
2019-04-11T22:01:10.418Z,103183.77
2019-04-11T22:03:39.745Z,103191.93
2019-04-11T22:06:09.114Z,103192.26
2019-04-11T22:08:38.599Z,103191.73
2019-04-11T22:11:10.114Z,103200.97
2019-04-11T22:13:40.408Z,103197.03
2019-04-11T22:16:13.465Z,103200.78
2019-04-11T22:18:41.490Z,103202.80
2019-04-11T22:21:12.997Z,103209.61
2019-04-11T22:23:48.604Z,103203.49
2019-04-11T22:26:13.002Z,103203.16
2019-04-11T22:28:42.320Z,103205.16
2019-04-11T22:31:11.601Z,103212.50
2019-04-11T22:33:48.215Z,103202.63
2019-04-11T22:36:17.576Z,103208.23
2019-04-11T22:38:46.837Z,103215.07
2019-04-11T22:41:16.197Z,103207.45
2019-04-11T22:43:45.462Z,103211.72
2019-04-11T22:46:20.569Z,103212.03
2019-04-11T22:48:45.950Z,103207.80
2019-04-11T22:51:15.302Z,103213.42
2019-04-11T22:53:44.629Z,103209.53
2019-04-11T22:56:14.070Z,103210.55
2019-04-11T22:58:43.721Z,103220.44
2019-04-11T23:01:13.942Z,103219.74
2019-04-11T23:03:51.936Z,103217.74
2019-04-11T23:06:21.169Z,103212.96
2019-04-11T23:08:50.443Z,103216.01
2019-04-11T23:11:19.948Z,103227.10
2019-04-11T23:13:49.524Z,103228.66
2019-04-11T23:16:19.767Z,103226.77
2019-04-11T23:18:49.115Z,103231.70
2019-04-11T23:21:18.550Z,103233.73
2019-04-11T23:23:47.873Z,103228.14
2019-04-11T23:26:17.719Z,103230.50
2019-04-11T23:28:47.287Z,103232.38
2019-04-11T23:31:19.751Z,103235.28
2019-04-11T23:33:51.447Z,103232.73
2019-04-11T23:36:21.299Z,103239.03
2019-04-11T23:38:52.590Z,103235.47
2019-04-11T23:41:21.800Z,103232.89
2019-04-11T23:43:51.513Z,103236.83
2019-04-11T23:46:21.478Z,103232.56
2019-04-11T23:48:54.681Z,103226.28
2019-04-11T23:51:25.469Z,103229.66
2019-04-11T23:53:53.805Z,103224.59
2019-04-11T23:56:23.456Z,103227.13
2019-04-11T23:58:52.818Z,103233.41
